首页
METAR-TAF:

METAR-TAF

机场 :

卡斯尔加, 不列颠哥伦比亚, 加拿大

纬度: 49-18N, 经度: 117-38W, 海拔: 495米

当前天气观测

该预报发布于22分钟前的13:00 UTC
风速2节,风向多变
温度 1°C
湿度 80%
气压 1024 hPa
能見度: 24.1公里
天空无云

METAR: CYCG 151300Z VRB02KT 15SM SKC 01/M02 A3024 RMK FU SLP251

时间: 06:22 (13:22 UTC)

预报

该预报发布于12小时和44分钟前的00:38 UTC
预报有效从15日的 01点(UTC)到 15日的 04点(UTC)
风速7节,风向
能見度: 10公里
天空无云

TAF: CYCG 150038Z 1501/1504 36007KT P6SM SKC RMK NXT FCST WILL BE ISSUED AT 151445Z

超过4000个机场的气象观测和天气预报(METAR&TAF报告)。

可查询的气象台以黄色和红色小点在地图上表示。

将鼠标移到小点上方,可查看气象台名称。

然后点击查看天气观测和预报。

如需切换地图:点击带黑十字的绿色按钮放大地图;点击带横线的绿色按钮缩小地图;或者点击绿色箭头查看邻近地区的地图。


METAR-TAF: